EGPE - Inverness-Dalcross
Distance from station: E 5mi, 14km
Updated: 07/21/2018 8:20am
Few Clouds
Few Clouds
 Wind from W
Wind: W 10 mph , 17 km/h
Temperature: 68°F , 20°C
Dew Point: 54°F , 12°C
Humidity: 60%
Barometer: 29.85 inHg , 1011 hPa
Clouds: Few Clouds
Visibility: 6 miles , 10 km
Cloud details: Few Clouds 3300 ft
2018/07/21 15:20 EGPE 211520Z 26009KT 9999 FEW033 20/12 Q1011